createdAt,value
2022-12-16T00:01:23.781Z,-8.97
2022-12-16T00:04:21.652Z,-8.97
2022-12-16T00:07:12.898Z,-8.92
2022-12-16T00:10:27.692Z,-8.85
2022-12-16T00:13:32.009Z,-8.69
2022-12-16T00:15:59.261Z,-8.65
2022-12-16T00:18:26.447Z,-8.71
2022-12-16T00:20:54.892Z,-8.69
2022-12-16T00:23:22.707Z,-8.73
2022-12-16T00:25:49.954Z,-8.79
2022-12-16T00:28:22.887Z,-8.85
2022-12-16T00:30:55.235Z,-8.83
2022-12-16T00:33:24.356Z,-8.85
2022-12-16T00:35:51.996Z,-8.96
2022-12-16T00:38:19.260Z,-8.95
2022-12-16T00:40:46.443Z,-8.96
2022-12-16T00:43:13.490Z,-9.05
2022-12-16T00:45:40.576Z,-9.07
2022-12-16T00:48:08.286Z,-9.14
2022-12-16T00:50:35.786Z,-9.18
2022-12-16T00:53:02.927Z,-9.27
2022-12-16T00:59:16.174Z,-9.32
2022-12-16T01:12:00.798Z,-9.52
2022-12-16T01:15:17.236Z,-9.64
2022-12-16T01:27:22.969Z,-9.41
2022-12-16T01:29:50.281Z,-9.38
2022-12-16T01:32:17.452Z,-9.39
2022-12-16T01:34:48.456Z,-9.36
2022-12-16T01:37:17.713Z,-9.43
2022-12-16T01:39:44.893Z,-9.46
2022-12-16T01:42:16.891Z,-9.55
2022-12-16T01:44:45.462Z,-9.63
2022-12-16T01:47:31.394Z,-9.71
2022-12-16T01:50:10.156Z,-9.73
2022-12-16T01:52:40.614Z,-9.79
2022-12-16T01:55:15.812Z,-9.79
2022-12-16T01:57:50.378Z,-9.80
2022-12-16T02:00:17.797Z,-9.75
2022-12-16T02:02:46.404Z,-9.75
2022-12-16T02:05:21.055Z,-9.78
2022-12-16T02:08:02.835Z,-9.85
2022-12-16T02:10:42.740Z,-9.91
2022-12-16T02:13:39.023Z,-10.01
2022-12-16T02:16:17.291Z,-10.08
2022-12-16T02:18:59.578Z,-10.14
2022-12-16T02:21:42.860Z,-10.13
2022-12-16T02:24:09.513Z,-10.07
2022-12-16T02:26:51.055Z,-9.97
2022-12-16T02:29:51.881Z,-9.89
2022-12-16T02:32:36.767Z,-9.83
2022-12-16T02:35:41.608Z,-9.88
2022-12-16T02:38:30.746Z,-9.62
2022-12-16T02:41:06.522Z,-9.55
2022-12-16T02:43:45.868Z,-9.43
2022-12-16T02:46:12.678Z,-9.27
2022-12-16T02:48:39.370Z,-9.19
2022-12-16T02:51:06.226Z,-9.11
2022-12-16T02:53:35.865Z,-8.96
2022-12-16T02:56:14.917Z,-8.85
2022-12-16T02:59:00.093Z,-8.81
2022-12-16T03:01:42.997Z,-8.70
2022-12-16T03:04:16.158Z,-8.71
2022-12-16T03:06:47.838Z,-8.69
2022-12-16T03:09:19.604Z,-8.66
2022-12-16T03:11:48.358Z,-8.57
2022-12-16T03:14:18.973Z,-8.52
2022-12-16T03:16:47.962Z,-8.43
2022-12-16T03:19:14.661Z,-8.38
2022-12-16T03:21:52.387Z,-8.38
2022-12-16T03:24:19.263Z,-8.39
2022-12-16T03:27:18.857Z,-8.39
2022-12-16T03:29:56.140Z,-8.53
2022-12-16T03:32:40.193Z,-8.68
2022-12-16T03:35:19.697Z,-8.84
2022-12-16T03:37:50.298Z,-8.95
2022-12-16T03:40:18.183Z,-8.93
2022-12-16T03:42:44.857Z,-9.03
2022-12-16T03:45:17.064Z,-9.14
2022-12-16T03:47:49.540Z,-9.12
2022-12-16T03:50:19.744Z,-9.12
2022-12-16T03:52:46.406Z,-9.34
2022-12-16T03:55:13.209Z,-9.44
2022-12-16T03:57:39.797Z,-9.53
2022-12-16T04:00:07.101Z,-9.56
2022-12-16T04:02:33.775Z,-9.64
2022-12-16T04:05:00.447Z,-9.65
2022-12-16T04:07:27.081Z,-9.63
2022-12-16T04:09:53.741Z,-9.75
2022-12-16T04:12:39.443Z,-9.82
2022-12-16T04:15:26.014Z,-9.92
2022-12-16T04:18:11.418Z,-9.94
2022-12-16T04:20:59.406Z,-9.97
2022-12-16T04:23:48.317Z,-10.05
2022-12-16T04:26:15.315Z,-10.21
2022-12-16T04:28:41.875Z,-10.24
2022-12-16T04:31:08.986Z,-10.21
2022-12-16T04:33:54.664Z,-10.24
2022-12-16T04:36:39.581Z,-10.25
2022-12-16T04:39:24.744Z,-10.31
2022-12-16T04:42:14.009Z,-10.30
2022-12-16T04:44:59.494Z,-10.43
2022-12-16T04:47:44.498Z,-10.47
2022-12-16T04:50:29.739Z,-10.49
2022-12-16T04:53:14.907Z,-10.45
2022-12-16T04:56:04.096Z,-10.43
2022-12-16T04:58:49.653Z,-10.33
2022-12-16T05:01:34.876Z,-10.24
2022-12-16T05:04:20.238Z,-10.15
2022-12-16T05:07:05.200Z,-10.16
2022-12-16T05:09:50.515Z,-10.19
2022-12-16T05:12:35.556Z,-10.26
2022-12-16T05:15:20.554Z,-10.30
2022-12-16T05:18:05.723Z,-10.36
2022-12-16T05:20:50.679Z,-10.32
2022-12-16T05:23:35.943Z,-10.48
2022-12-16T05:26:21.471Z,-10.52
2022-12-16T05:29:06.748Z,-10.52
2022-12-16T05:31:51.948Z,-10.41
2022-12-16T05:34:36.868Z,-10.51
2022-12-16T05:37:21.854Z,-10.47
2022-12-16T05:40:06.906Z,-10.48
2022-12-16T05:42:52.227Z,-10.54
2022-12-16T05:45:37.215Z,-10.44
2022-12-16T05:48:22.853Z,-10.39
2022-12-16T05:51:07.795Z,-10.38
2022-12-16T05:53:52.802Z,-10.39
2022-12-16T05:56:38.163Z,-10.51
2022-12-16T05:59:23.531Z,-10.50
2022-12-16T06:02:08.457Z,-10.52
2022-12-16T06:04:53.500Z,-10.49
2022-12-16T06:07:38.515Z,-10.39
2022-12-16T06:10:24.140Z,-10.32
2022-12-16T06:13:09.246Z,-10.32
2022-12-16T06:15:54.745Z,-10.32
2022-12-16T06:18:39.852Z,-10.34
2022-12-16T06:21:24.995Z,-10.43
2022-12-16T06:24:09.981Z,-10.48
2022-12-16T06:26:55.129Z,-10.54
2022-12-16T06:29:40.125Z,-10.62
2022-12-16T06:32:25.343Z,-10.56
2022-12-16T06:35:10.367Z,-10.63
2022-12-16T06:37:55.249Z,-10.74
2022-12-16T06:40:40.319Z,-10.77
2022-12-16T06:43:25.295Z,-10.86
2022-12-16T06:46:10.558Z,-10.89
2022-12-16T06:48:55.542Z,-10.79
2022-12-16T06:51:40.987Z,-10.87
2022-12-16T06:54:26.059Z,-10.94
2022-12-16T06:57:11.032Z,-10.80
2022-12-16T06:59:56.425Z,-10.66
2022-12-16T07:02:41.938Z,-10.60
2022-12-16T07:05:27.977Z,-10.54
2022-12-16T07:08:13.129Z,-10.60
2022-12-16T07:11:13.639Z,-10.68
2022-12-16T07:14:01.044Z,-10.69
2022-12-16T07:16:46.135Z,-10.67
2022-12-16T07:19:31.496Z,-10.59
2022-12-16T07:22:16.565Z,-10.48
2022-12-16T07:25:01.726Z,-10.41
2022-12-16T07:27:46.705Z,-10.39
2022-12-16T07:30:32.189Z,-10.30
2022-12-16T07:33:17.731Z,-10.25
2022-12-16T07:36:03.388Z,-10.07
2022-12-16T07:38:48.571Z,-9.90
2022-12-16T07:41:33.676Z,-9.67
2022-12-16T07:44:18.605Z,-9.53
2022-12-16T07:47:03.705Z,-9.59
2022-12-16T07:49:49.052Z,-9.63
2022-12-16T07:52:51.052Z,-9.75
2022-12-16T07:55:36.306Z,-9.88
2022-12-16T07:58:21.511Z,-9.96
2022-12-16T08:01:15.322Z,-9.96
2022-12-16T08:04:02.353Z,-9.97
2022-12-16T08:06:48.151Z,-9.91
2022-12-16T08:09:35.598Z,-9.82
2022-12-16T08:12:23.835Z,-9.76
2022-12-16T08:15:09.262Z,-9.73
2022-12-16T08:18:01.310Z,-9.64
2022-12-16T08:20:46.980Z,-9.52
2022-12-16T08:23:34.793Z,-9.44
2022-12-16T08:26:20.153Z,-9.35
2022-12-16T08:29:34.792Z,-9.22
2022-12-16T08:32:10.415Z,-9.24
2022-12-16T08:35:15.258Z,-9.09
2022-12-16T08:38:09.049Z,-9.04
2022-12-16T08:41:03.144Z,-9.00
2022-12-16T08:43:53.117Z,-8.93
2022-12-16T08:46:39.561Z,-8.78
2022-12-16T08:49:25.053Z,-8.54
2022-12-16T08:52:10.569Z,-8.23
2022-12-16T08:54:56.517Z,-7.94
2022-12-16T08:57:42.111Z,-7.75
2022-12-16T09:00:28.242Z,-7.48
2022-12-16T09:03:14.833Z,-7.31
2022-12-16T09:06:00.358Z,-7.28
2022-12-16T09:08:47.397Z,-7.19
2022-12-16T09:11:32.401Z,-6.88
2022-12-16T09:14:17.496Z,-6.65
2022-12-16T09:17:02.567Z,-6.61
2022-12-16T09:19:47.964Z,-6.46
2022-12-16T09:22:33.131Z,-6.30
2022-12-16T09:25:18.279Z,-5.96
2022-12-16T09:28:03.380Z,-5.75
2022-12-16T09:30:48.370Z,-5.47
2022-12-16T09:33:34.057Z,-5.18
2022-12-16T09:36:19.479Z,-5.24
2022-12-16T09:39:04.893Z,-5.30
2022-12-16T09:42:33.452Z,-5.18
2022-12-16T09:45:23.646Z,-4.98
2022-12-16T09:48:27.187Z,-4.94
2022-12-16T09:51:16.296Z,-5.03
2022-12-16T09:54:03.470Z,-5.00
2022-12-16T09:56:55.173Z,-5.00
2022-12-16T09:59:48.603Z,-4.82
2022-12-16T10:02:38.043Z,-5.08
2022-12-16T10:05:33.613Z,-5.27
2022-12-16T10:08:36.740Z,-5.02
2022-12-16T10:11:32.869Z,-5.26
2022-12-16T10:14:29.670Z,-5.20
2022-12-16T10:17:19.699Z,-5.59
2022-12-16T10:20:32.376Z,-5.44
2022-12-16T10:23:37.694Z,-5.40
2022-12-16T10:26:58.350Z,-5.41
2022-12-16T10:29:47.065Z,-5.41
2022-12-16T10:32:53.768Z,-5.29
2022-12-16T10:35:45.581Z,-5.15
2022-12-16T10:38:40.720Z,-5.10
2022-12-16T10:41:27.227Z,-4.95
2022-12-16T10:44:14.730Z,-4.68
2022-12-16T10:46:59.679Z,-4.52
2022-12-16T10:49:48.426Z,-4.57
2022-12-16T10:52:35.870Z,-4.40
2022-12-16T10:55:33.885Z,-4.31
2022-12-16T10:58:48.644Z,-4.35
2022-12-16T11:01:43.487Z,-4.22
2022-12-16T11:04:55.771Z,-4.05
2022-12-16T11:07:56.094Z,-3.94
2022-12-16T11:10:45.905Z,-3.89
2022-12-16T11:13:49.271Z,-3.82
2022-12-16T11:16:43.905Z,-3.97
2022-12-16T11:19:49.281Z,-3.96
2022-12-16T11:22:42.150Z,-4.05
2022-12-16T11:25:38.897Z,-4.04
2022-12-16T11:28:36.541Z,-4.15
2022-12-16T11:31:25.109Z,-4.30
2022-12-16T11:34:12.490Z,-4.43
2022-12-16T11:37:00.195Z,-4.36
2022-12-16T11:39:51.080Z,-4.42
2022-12-16T11:42:43.958Z,-4.30
2022-12-16T11:45:35.545Z,-4.45
2022-12-16T11:48:40.737Z,-4.40
2022-12-16T11:51:32.736Z,-4.38
2022-12-16T11:54:31.950Z,-4.40
2022-12-16T11:57:21.511Z,-4.43
2022-12-16T12:00:18.255Z,-4.46
2022-12-16T12:03:11.671Z,-4.41
2022-12-16T12:06:06.096Z,-4.46
2022-12-16T12:09:03.981Z,-4.53
2022-12-16T12:11:54.255Z,-4.53
2022-12-16T12:14:55.741Z,-4.62
2022-12-16T12:18:13.638Z,-4.60
2022-12-16T12:21:23.804Z,-4.59
2022-12-16T12:24:08.998Z,-4.54
2022-12-16T12:26:58.610Z,-4.51
2022-12-16T12:30:11.707Z,-4.55
2022-12-16T12:33:09.719Z,-4.51
2022-12-16T12:36:03.731Z,-4.42
2022-12-16T12:39:11.385Z,-4.44
2022-12-16T12:42:12.142Z,-4.39
2022-12-16T12:45:03.507Z,-4.32
2022-12-16T12:47:51.591Z,-4.28
2022-12-16T12:50:48.866Z,-4.19
2022-12-16T12:53:52.954Z,-3.96
2022-12-16T12:57:00.253Z,-3.87
2022-12-16T13:00:02.010Z,-3.75
2022-12-16T13:03:02.279Z,-3.65
2022-12-16T13:05:51.965Z,-3.61
2022-12-16T13:09:00.924Z,-3.64
2022-12-16T13:11:46.883Z,-3.56
2022-12-16T13:14:50.502Z,-3.43
2022-12-16T13:17:37.633Z,-3.36
2022-12-16T13:20:44.846Z,-3.39
2022-12-16T13:23:52.949Z,-3.36
2022-12-16T13:26:40.437Z,-3.38
2022-12-16T13:29:37.751Z,-3.50
2022-12-16T13:32:26.235Z,-3.47
2022-12-16T13:35:26.801Z,-3.47
2022-12-16T13:38:21.707Z,-3.53
2022-12-16T13:41:18.197Z,-3.52
2022-12-16T13:44:13.667Z,-3.49
2022-12-16T13:47:04.776Z,-3.55
2022-12-16T13:49:56.363Z,-3.58
2022-12-16T13:52:54.942Z,-3.69
2022-12-16T13:55:48.590Z,-3.76
2022-12-16T13:59:07.380Z,-3.85
2022-12-16T14:02:06.275Z,-3.99
2022-12-16T14:04:54.693Z,-4.12
2022-12-16T14:07:43.415Z,-4.27
2022-12-16T14:10:48.080Z,-4.37
2022-12-16T14:13:46.626Z,-4.48
2022-12-16T14:16:40.142Z,-4.53
2022-12-16T14:20:03.190Z,-4.59
2022-12-16T14:23:32.569Z,-4.75
2022-12-16T14:26:18.295Z,-4.76
2022-12-16T14:29:07.561Z,-4.82
2022-12-16T14:32:02.215Z,-4.85
2022-12-16T14:35:07.179Z,-4.91
2022-12-16T14:37:54.923Z,-5.03
2022-12-16T14:40:40.168Z,-5.09
2022-12-16T14:43:38.089Z,-5.17
2022-12-16T14:46:24.152Z,-5.25
2022-12-16T14:49:10.639Z,-5.36
2022-12-16T14:52:03.782Z,-5.45
2022-12-16T14:54:57.784Z,-5.53
2022-12-16T14:57:48.028Z,-5.59
2022-12-16T15:00:35.245Z,-5.68
2022-12-16T15:03:24.039Z,-5.80
2022-12-16T15:06:10.159Z,-5.89
2022-12-16T15:09:07.802Z,-5.94
2022-12-16T15:11:55.502Z,-6.02
2022-12-16T15:14:48.542Z,-6.10
2022-12-16T15:17:49.973Z,-6.07
2022-12-16T15:20:40.735Z,-6.04
2022-12-16T15:23:41.706Z,-6.04
2022-12-16T15:26:27.973Z,-6.14
2022-12-16T15:29:13.214Z,-6.34
2022-12-16T15:32:03.124Z,-6.61
2022-12-16T15:35:07.207Z,-6.67
2022-12-16T15:38:04.515Z,-6.77
2022-12-16T15:40:52.412Z,-6.80
2022-12-16T15:43:43.529Z,-6.80
2022-12-16T15:46:43.725Z,-6.71
2022-12-16T15:49:44.993Z,-6.83
2022-12-16T15:52:49.276Z,-6.78
2022-12-16T15:55:57.139Z,-6.87
2022-12-16T15:58:50.594Z,-6.89
2022-12-16T16:01:38.595Z,-6.88
2022-12-16T16:04:36.844Z,-6.89
2022-12-16T16:07:21.856Z,-6.96
2022-12-16T16:10:06.916Z,-6.98
2022-12-16T16:12:52.318Z,-7.09
2022-12-16T16:15:37.446Z,-7.10
2022-12-16T16:18:24.799Z,-7.08
2022-12-16T16:21:10.429Z,-7.13
2022-12-16T16:23:56.066Z,-7.17
2022-12-16T16:26:44.926Z,-7.18
2022-12-16T16:29:30.788Z,-7.16
2022-12-16T16:32:16.008Z,-7.20
2022-12-16T16:35:00.773Z,-7.22
2022-12-16T16:37:45.908Z,-7.35
2022-12-16T16:40:46.960Z,-7.38
2022-12-16T16:43:32.288Z,-7.38
2022-12-16T16:46:17.589Z,-7.47
2022-12-16T16:49:02.735Z,-7.47
2022-12-16T16:51:47.819Z,-7.43
2022-12-16T16:54:33.239Z,-7.37
2022-12-16T16:57:21.595Z,-7.32
2022-12-16T17:00:06.738Z,-7.27
2022-12-16T17:02:52.221Z,-7.34
2022-12-16T17:05:37.775Z,-7.38
2022-12-16T17:08:22.719Z,-7.44
2022-12-16T17:11:07.764Z,-7.58
2022-12-16T17:13:52.830Z,-7.76
2022-12-16T17:16:38.027Z,-7.69
2022-12-16T17:19:23.391Z,-7.68
2022-12-16T17:22:08.869Z,-7.60
2022-12-16T17:24:54.846Z,-7.66
2022-12-16T17:27:44.728Z,-7.66
2022-12-16T17:30:44.875Z,-7.76
2022-12-16T17:33:32.499Z,-7.71
2022-12-16T17:36:17.955Z,-7.69
2022-12-16T17:39:03.901Z,-7.53
2022-12-16T17:41:51.191Z,-7.55
2022-12-16T17:44:37.228Z,-7.66
2022-12-16T17:47:23.327Z,-7.61
2022-12-16T17:50:08.363Z,-7.71
2022-12-16T17:52:53.284Z,-7.68
2022-12-16T17:55:38.614Z,-7.65
2022-12-16T17:58:23.737Z,-7.60
2022-12-16T18:01:08.795Z,-7.60
2022-12-16T18:03:53.712Z,-7.53
2022-12-16T18:06:39.224Z,-7.51
2022-12-16T18:09:24.723Z,-7.45
2022-12-16T18:12:10.227Z,-7.42
2022-12-16T18:15:12.304Z,-7.40
2022-12-16T18:17:57.757Z,-7.51
2022-12-16T18:20:43.030Z,-7.59
2022-12-16T18:23:28.108Z,-7.70
2022-12-16T18:26:20.459Z,-7.78
2022-12-16T18:29:05.636Z,-7.89
2022-12-16T18:31:51.232Z,-7.88
2022-12-16T18:34:36.376Z,-7.87
2022-12-16T18:37:21.966Z,-7.94
2022-12-16T18:40:07.241Z,-8.02
2022-12-16T18:42:52.187Z,-8.10
2022-12-16T18:45:37.777Z,-8.18
2022-12-16T18:48:23.110Z,-8.14
2022-12-16T18:51:15.284Z,-8.05
2022-12-16T18:54:00.639Z,-8.21
2022-12-16T18:56:46.090Z,-8.16
2022-12-16T18:59:31.473Z,-8.20
2022-12-16T19:02:17.284Z,-8.14
2022-12-16T19:05:02.725Z,-8.06
2022-12-16T19:07:48.177Z,-8.00
2022-12-16T19:10:33.071Z,-7.98
2022-12-16T19:13:18.632Z,-7.72
2022-12-16T19:16:14.161Z,-7.60
2022-12-16T19:19:00.134Z,-7.50
2022-12-16T19:21:49.975Z,-7.38
2022-12-16T19:24:37.448Z,-7.41
2022-12-16T19:27:22.933Z,-7.43
2022-12-16T19:30:08.229Z,-7.41
2022-12-16T19:32:54.371Z,-7.43
2022-12-16T19:35:41.300Z,-7.45
2022-12-16T19:38:31.849Z,-7.42
2022-12-16T19:41:17.023Z,-7.24
2022-12-16T19:44:06.115Z,-6.98
2022-12-16T19:46:56.026Z,-6.78
2022-12-16T19:49:44.330Z,-6.63
2022-12-16T19:52:47.390Z,-6.56
2022-12-16T19:55:32.790Z,-6.40
2022-12-16T19:58:17.711Z,-6.52
2022-12-16T20:01:02.705Z,-6.64
2022-12-16T20:03:48.789Z,-6.51
2022-12-16T20:06:34.160Z,-6.42
2022-12-16T20:09:19.301Z,-6.18
2022-12-16T20:12:04.616Z,-6.00
2022-12-16T20:14:49.783Z,-5.97
2022-12-16T20:17:35.261Z,-5.94
2022-12-16T20:20:20.622Z,-5.91
2022-12-16T20:23:06.125Z,-5.82
2022-12-16T20:25:51.889Z,-5.71
2022-12-16T20:28:37.371Z,-5.66
2022-12-16T20:31:24.402Z,-5.59
2022-12-16T20:34:16.554Z,-5.47
2022-12-16T20:37:01.916Z,-5.36
2022-12-16T20:42:53.534Z,-5.29
2022-12-16T20:45:39.034Z,-5.14
2022-12-16T20:48:24.637Z,-5.06
2022-12-16T20:51:24.274Z,-5.02
2022-12-16T20:54:11.762Z,-4.95
2022-12-16T20:56:56.793Z,-5.03
2022-12-16T20:59:42.089Z,-5.03
2022-12-16T21:05:38.626Z,-4.83
2022-12-16T21:08:24.374Z,-4.77
2022-12-16T21:11:09.836Z,-4.71
2022-12-16T21:17:00.103Z,-4.56
2022-12-16T21:19:45.415Z,-4.44
2022-12-16T21:22:31.408Z,-4.36
2022-12-16T21:25:21.077Z,-4.34
2022-12-16T21:28:29.490Z,-4.30
2022-12-16T21:31:19.353Z,-4.23
2022-12-16T21:34:04.413Z,-4.24
2022-12-16T21:36:49.708Z,-4.24
2022-12-16T21:39:35.331Z,-4.16
2022-12-16T21:42:20.217Z,-4.15
2022-12-16T21:45:05.368Z,-4.19
2022-12-16T21:47:50.382Z,-4.17
2022-12-16T21:50:35.833Z,-4.13
2022-12-16T21:53:20.905Z,-4.14
2022-12-16T21:56:13.365Z,-4.13
2022-12-16T21:58:58.396Z,-4.15
2022-12-16T22:01:43.450Z,-4.11
2022-12-16T22:04:28.352Z,-4.07
2022-12-16T22:07:13.717Z,-3.98
2022-12-16T22:09:59.036Z,-3.95
2022-12-16T22:12:51.836Z,-3.89
2022-12-16T22:15:36.903Z,-3.94
2022-12-16T22:18:22.489Z,-3.88
2022-12-16T22:21:22.254Z,-3.85
2022-12-16T22:24:07.168Z,-3.86
2022-12-16T22:26:52.589Z,-3.86
2022-12-16T22:29:39.109Z,-3.86
2022-12-16T22:32:24.585Z,-3.83
2022-12-16T22:35:09.529Z,-3.77
2022-12-16T22:37:55.045Z,-3.72
2022-12-16T22:40:41.421Z,-3.73
2022-12-16T22:43:26.687Z,-3.78
2022-12-16T22:46:21.704Z,-3.78
2022-12-16T22:49:07.733Z,-3.73
2022-12-16T22:51:52.657Z,-3.75
2022-12-16T22:54:39.309Z,-3.74
2022-12-16T22:57:24.302Z,-3.74
2022-12-16T23:00:09.406Z,-3.69
2022-12-16T23:02:55.214Z,-3.74
2022-12-16T23:05:42.040Z,-3.73
2022-12-16T23:08:27.474Z,-3.71
2022-12-16T23:11:17.091Z,-3.71
2022-12-16T23:14:02.557Z,-3.69
2022-12-16T23:16:47.945Z,-3.69
2022-12-16T23:19:33.203Z,-3.67
2022-12-16T23:22:18.167Z,-3.67
2022-12-16T23:25:03.326Z,-3.67
2022-12-16T23:27:48.920Z,-3.62
2022-12-16T23:30:33.897Z,-3.70
2022-12-16T23:32:30.549Z,-4.66
2022-12-16T23:33:21.103Z,-3.71
2022-12-16T23:36:06.594Z,-3.69
2022-12-16T23:38:51.862Z,-3.85
2022-12-16T23:41:38.647Z,-3.86
2022-12-16T23:44:23.933Z,-3.86
2022-12-16T23:47:09.030Z,-3.94
2022-12-16T23:49:56.494Z,-4.04
2022-12-16T23:52:41.905Z,-3.93
2022-12-16T23:55:27.426Z,-3.96
2022-12-16T23:58:20.378Z,-3.94
